Time;durP1;ratioP1;P1;durP2;ratioP2;P2;SDS_P1;SDS_P2;PMS_P1;PMS_P2;Temp;Humidity;BMP_temperature;BMP_pressure;BME280_temperature;BME280_humidity;BME280_pressure;Samples;Min_cycle;Max_cycle;Signal;HPM_P1;HPM_P2
2023/12/24 00:00:29;;;;;;;6.22;2.13;;;;;;;11.56;100.00;100791.69;5340310;27;20031;-80
2023/12/24 00:03:00;;;;;;;4.35;2.40;;;;;;;11.52;100.00;100796.41;5325743;27;20045;-81
2023/12/24 00:05:32;;;;;;;6.30;2.83;;;;;;;11.51;100.00;100793.88;5346957;27;20041;-80
2023/12/24 00:08:05;;;;;;;11.77;3.35;;;;;;;11.50;100.00;100784.38;5343375;27;20129;-81
2023/12/24 00:10:36;;;;;;;7.50;2.50;;;;;;;11.52;100.00;100779.81;5348422;27;20407;-80
2023/12/24 00:13:08;;;;;;;5.85;2.28;;;;;;;11.49;100.00;100785.34;5338340;27;20023;-80
2023/12/24 00:15:40;;;;;;;8.35;2.10;;;;;;;11.51;100.00;100799.97;5339523;27;20518;-80
2023/12/24 00:18:12;;;;;;;5.40;2.20;;;;;;;11.53;100.00;100799.84;5339483;27;20027;-81
2023/12/24 00:20:44;;;;;;;7.35;2.00;;;;;;;11.54;100.00;100809.38;5346295;27;20041;-81
2023/12/24 00:23:16;;;;;;;6.05;2.80;;;;;;;11.55;100.00;100795.28;5345644;27;20030;-81
2023/12/24 00:25:48;;;;;;;3.17;2.40;;;;;;;11.58;100.00;100800.25;5344406;27;20030;-81
2023/12/24 00:28:20;;;;;;;5.95;2.03;;;;;;;11.57;100.00;100811.72;5343695;27;20026;-81
2023/12/24 00:30:52;;;;;;;4.10;1.60;;;;;;;11.54;100.00;100793.63;5346645;27;20027;-81
2023/12/24 00:33:24;;;;;;;4.72;1.70;;;;;;;11.59;100.00;100788.78;5340983;27;20022;-82
2023/12/24 00:35:56;;;;;;;6.40;1.95;;;;;;;11.66;100.00;100787.25;5341671;27;20035;-81
2023/12/24 00:38:27;;;;;;;3.65;1.50;;;;;;;11.64;100.00;100763.78;5341462;27;20041;-81
2023/12/24 00:41:00;;;;;;;3.45;1.33;;;;;;;11.64;100.00;100760.34;5346440;27;20035;-81
2023/12/24 00:43:32;;;;;;;3.95;1.42;;;;;;;11.63;100.00;100750.78;5339944;27;20037;-81
2023/12/24 00:46:04;;;;;;;3.87;1.33;;;;;;;11.58;100.00;100738.09;5346805;27;20030;-81
2023/12/24 00:48:36;;;;;;;3.38;1.20;;;;;;;11.55;100.00;100743.63;5345209;27;20031;-81
2023/12/24 00:51:08;;;;;;;3.83;1.35;;;;;;;11.56;100.00;100715.63;5342999;27;20027;-81
2023/12/24 00:53:40;;;;;;;3.83;1.50;;;;;;;11.57;100.00;100715.47;5344181;27;20034;-82
2023/12/24 00:56:12;;;;;;;5.20;1.50;;;;;;;11.52;100.00;100703.75;5344165;27;20023;-81
2023/12/24 00:58:44;;;;;;;6.53;2.17;;;;;;;11.50;100.00;100695.16;5344362;27;20037;-81
2023/12/24 01:01:16;;;;;;;6.40;1.55;;;;;;;11.48;100.00;100683.97;5323407;27;20382;-80
2023/12/24 01:03:48;;;;;;;5.15;1.42;;;;;;;11.49;100.00;100678.59;5342016;27;20031;-81
2023/12/24 01:06:19;;;;;;;4.72;1.52;;;;;;;11.52;100.00;100659.97;5343923;27;20034;-81
2023/12/24 01:08:51;;;;;;;9.10;2.45;;;;;;;11.49;100.00;100639.25;5344507;27;20147;-81
2023/12/24 01:11:23;;;;;;;3.65;1.30;;;;;;;11.48;100.00;100642.00;5340923;27;20029;-81
2023/12/24 01:13:55;;;;;;;6.93;1.60;;;;;;;11.54;100.00;100652.75;5343098;27;20019;-80
2023/12/24 01:16:27;;;;;;;6.15;1.35;;;;;;;11.47;100.00;100627.22;5343031;27;20034;-80
2023/12/24 01:18:59;;;;;;;7.00;1.50;;;;;;;11.53;100.00;100638.00;5349791;27;20045;-80
2023/12/24 01:21:31;;;;;;;4.75;1.30;;;;;;;11.63;100.00;100640.59;5348162;27;20044;-80
2023/12/24 01:24:03;;;;;;;5.80;1.60;;;;;;;11.67;100.00;100642.81;5351191;27;20026;-80
2023/12/24 01:26:36;;;;;;;6.05;1.73;;;;;;;11.67;100.00;100636.75;5350246;27;20035;-81
2023/12/24 01:29:08;;;;;;;4.72;1.20;;;;;;;11.69;100.00;100640.84;5348073;27;20034;-81
2023/12/24 01:31:40;;;;;;;6.15;1.83;;;;;;;11.68;100.00;100647.06;5350123;27;20402;-81
2023/12/24 01:34:12;;;;;;;6.65;1.50;;;;;;;11.79;100.00;100645.25;5349217;27;20035;-81
2023/12/24 01:36:44;;;;;;;4.13;1.10;;;;;;;11.72;100.00;100639.75;5347185;27;20030;-80
2023/12/24 01:39:16;;;;;;;5.97;1.38;;;;;;;11.66;100.00;100649.00;5350467;27;20527;-80
2023/12/24 01:41:48;;;;;;;5.30;1.33;;;;;;;11.74;100.00;100650.91;5350928;27;20373;-80
2023/12/24 01:44:20;;;;;;;5.15;1.20;;;;;;;11.74;100.00;100656.16;5349909;27;20037;-80
2023/12/24 01:46:51;;;;;;;8.27;1.50;;;;;;;11.66;100.00;100649.00;5351996;27;20037;-80
2023/12/24 01:49:23;;;;;;;3.88;1.33;;;;;;;11.66;100.00;100658.69;5346818;27;20456;-81
2023/12/24 01:51:56;;;;;;;4.57;1.40;;;;;;;11.67;100.00;100658.56;5349746;27;20058;-80
2023/12/24 01:54:31;;;;;;;9.05;1.83;;;;;;;11.68;100.00;100657.56;5350744;27;20430;-80
2023/12/24 01:57:03;;;;;;;4.93;1.48;;;;;;;11.72;100.00;100663.38;5348349;27;20019;-80
2023/12/24 01:59:36;;;;;;;4.68;1.58;;;;;;;11.68;100.00;100654.94;5348219;27;20038;-80
2023/12/24 02:02:09;;;;;;;5.25;1.85;;;;;;;11.73;100.00;100664.19;5345236;27;20027;-81
2023/12/24 02:04:41;;;;;;;7.47;1.65;;;;;;;11.74;100.00;100653.53;5347532;27;20031;-80
2023/12/24 02:07:14;;;;;;;5.05;1.70;;;;;;;11.59;100.00;100655.81;5349501;27;20031;-80
2023/12/24 02:09:46;;;;;;;4.53;1.92;;;;;;;11.56;100.00;100648.22;5329591;27;20031;-81
2023/12/24 02:12:18;;;;;;;6.18;1.80;;;;;;;11.58;100.00;100650.69;5349980;27;20023;-81
2023/12/24 02:14:50;;;;;;;4.25;1.67;;;;;;;11.56;100.00;100642.97;5349040;27;20026;-81
2023/12/24 02:17:23;;;;;;;4.32;1.70;;;;;;;11.58;100.00;100645.44;5350097;27;20053;-82
2023/12/24 02:19:54;;;;;;;5.78;1.63;;;;;;;11.59;100.00;100655.81;5351249;27;20602;-81
2023/12/24 02:22:27;;;;;;;3.83;1.50;;;;;;;11.53;100.00;100650.28;5348231;27;20042;-81
2023/12/24 02:24:59;;;;;;;5.78;2.40;;;;;;;11.54;100.00;100641.44;5332247;27;20043;-81
2023/12/24 02:27:47;;;;;;;4.20;1.73;;;;;;;11.61;100.00;100630.25;5348217;27;20039;-82
2023/12/24 02:30:22;;;;;;;4.13;1.45;;;;;;;11.48;100.00;100637.59;5349526;27;20472;-81
2023/12/24 02:32:57;;;;;;;4.97;1.42;;;;;;;11.43;100.00;100630.13;5348169;27;20031;-80
2023/12/24 02:35:37;;;;;;;5.57;2.15;;;;;;;11.41;100.00;100626.84;5343480;27;20380;-81
2023/12/24 02:38:09;;;;;;;4.78;1.52;;;;;;;11.31;100.00;100607.66;5347185;27;20034;-81
2023/12/24 02:40:41;;;;;;;5.50;1.73;;;;;;;11.28;100.00;100609.72;5347480;27;20030;-80
2023/12/24 02:43:12;;;;;;;4.53;1.98;;;;;;;11.28;100.00;100610.56;5350631;27;20613;-81
2023/12/24 02:45:44;;;;;;;4.15;1.90;;;;;;;11.20;100.00;100600.78;5349170;27;20025;-81
2023/12/24 02:48:16;;;;;;;5.40;2.03;;;;;;;11.24;100.00;100603.94;5350601;27;20666;-81
2023/12/24 02:50:48;;;;;;;4.88;2.30;;;;;;;11.23;100.00;100606.72;5348965;27;20019;-81
2023/12/24 02:53:20;;;;;;;4.25;1.75;;;;;;;11.18;100.00;100589.63;5349415;27;20022;-81
2023/12/24 02:55:52;;;;;;;5.55;2.08;;;;;;;11.23;100.00;100598.84;5344656;27;20128;-81
2023/12/24 02:58:24;;;;;;;4.53;1.90;;;;;;;11.22;100.00;100589.34;5350739;27;20394;-81
2023/12/24 03:00:56;;;;;;;4.35;1.90;;;;;;;11.15;100.00;100589.06;5339973;27;20035;-81
2023/12/24 03:03:28;;;;;;;6.25;2.35;;;;;;;11.15;100.00;100589.88;5325421;27;20039;-81
2023/12/24 03:06:00;;;;;;;5.47;2.30;;;;;;;11.17;100.00;100587.09;5345987;27;20031;-81
2023/12/24 03:08:31;;;;;;;6.55;1.90;;;;;;;11.17;100.00;100587.97;5346050;27;20019;-81
2023/12/24 03:11:03;;;;;;;4.47;2.22;;;;;;;11.13;100.00;100586.56;5348860;27;20034;-81
2023/12/24 03:13:35;;;;;;;5.47;2.10;;;;;;;11.16;100.00;100572.34;5350360;27;20472;-81
2023/12/24 03:16:07;;;;;;;3.80;1.73;;;;;;;11.12;100.00;100579.66;5351222;27;20384;-81
2023/12/24 03:18:39;;;;;;;4.45;1.70;;;;;;;11.15;100.00;100578.56;5350117;27;20053;-81
2023/12/24 03:21:11;;;;;;;5.55;2.00;;;;;;;11.19;100.00;100558.97;5347864;27;20065;-81
2023/12/24 03:23:43;;;;;;;3.80;1.70;;;;;;;11.14;100.00;100554.16;5348021;27;20033;-81
2023/12/24 03:26:22;;;;;;;2.75;1.27;;;;;;;11.29;100.00;100551.06;5345194;27;20026;-81
2023/12/24 03:28:53;;;;;;;3.10;1.30;;;;;;;11.13;100.00;100543.78;5343311;27;20039;-81
2023/12/24 03:31:26;;;;;;;2.78;1.10;;;;;;;11.17;100.00;100537.28;5341864;27;20498;-81
2023/12/24 03:33:57;;;;;;;3.85;1.10;;;;;;;11.20;100.00;100537.00;5347507;27;20027;-81
2023/12/24 03:36:29;;;;;;;2.47;1.10;;;;;;;11.20;100.00;100534.41;5348191;27;20029;-82
2023/12/24 03:39:01;;;;;;;3.38;1.10;;;;;;;11.25;100.00;100529.56;5348145;27;20037;-81
2023/12/24 03:41:33;;;;;;;1.98;0.85;;;;;;;11.25;100.00;100529.56;5349807;27;20035;-80
2023/12/24 03:44:05;;;;;;;2.40;0.88;;;;;;;11.22;100.00;100532.47;5350384;27;20453;-81
2023/12/24 03:46:37;;;;;;;0.90;0.50;;;;;;;11.16;100.00;100512.06;5349206;27;20035;-81
2023/12/24 03:49:10;;;;;;;0.88;0.40;;;;;;;11.30;100.00;100529.13;5347803;27;20042;-81
2023/12/24 03:51:42;;;;;;;2.35;0.40;;;;;;;11.31;100.00;100518.50;5330393;27;20046;-81
2023/12/24 03:54:14;;;;;;;1.35;0.50;;;;;;;11.32;100.00;100521.94;5347270;27;20043;-81
2023/12/24 03:56:45;;;;;;;1.85;0.50;;;;;;;11.34;100.00;100509.53;5350299;27;20031;-81
2023/12/24 03:59:17;;;;;;;0.90;0.40;;;;;;;11.29;100.00;100504.72;5345304;27;20484;-81
2023/12/24 04:01:49;;;;;;;1.08;0.40;;;;;;;11.37;100.00;100520.56;5347221;27;20435;-81
2023/12/24 04:04:21;;;;;;;0.85;0.43;;;;;;;11.36;100.00;100526.75;5346193;27;20036;-81
2023/12/24 04:06:53;;;;;;;1.05;0.40;;;;;;;11.44;100.00;100524.25;5347613;27;20027;-81
2023/12/24 04:09:25;;;;;;;1.40;0.40;;;;;;;11.48;100.00;100521.31;5351437;27;20027;-81
2023/12/24 04:11:57;;;;;;;0.80;0.40;;;;;;;11.49;100.00;100513.34;5348295;27;20023;-80
2023/12/24 04:14:29;;;;;;;0.47;0.30;;;;;;;11.49;100.00;100515.13;5342410;27;20376;-80
2023/12/24 04:17:02;;;;;;;1.58;0.50;;;;;;;11.49;100.00;100518.56;5342430;27;20027;-81
2023/12/24 04:19:34;;;;;;;0.55;0.40;;;;;;;11.48;100.00;100514.31;5348269;27;20029;-80
2023/12/24 04:22:06;;;;;;;0.75;0.30;;;;;;;11.43;100.00;100509.47;5343215;27;20070;-81
2023/12/24 04:24:38;;;;;;;1.20;0.40;;;;;;;11.47;100.00;100507.38;5345620;27;20033;-81
2023/12/24 04:27:11;;;;;;;1.27;0.50;;;;;;;11.45;100.00;100497.06;5342377;27;20027;-81
2023/12/24 04:29:42;;;;;;;0.80;0.40;;;;;;;11.47;100.00;100489.03;5343045;27;20034;-81
2023/12/24 04:32:16;;;;;;;0.60;0.40;;;;;;;11.57;100.00;100507.38;5343908;27;20431;-81
2023/12/24 04:34:48;;;;;;;0.40;0.30;;;;;;;11.57;100.00;100497.69;5348805;27;20042;-81
2023/12/24 04:37:20;;;;;;;0.68;0.38;;;;;;;11.50;100.00;100501.84;5345373;27;20035;-81
2023/12/24 04:39:52;;;;;;;0.75;0.45;;;;;;;11.48;100.00;100495.94;5344971;27;20031;-81
2023/12/24 04:42:24;;;;;;;0.30;0.20;;;;;;;11.47;100.00;100503.94;5343351;27;20444;-81
2023/12/24 04:44:56;;;;;;;0.50;0.30;;;;;;;11.44;100.00;100484.91;5323444;27;20045;-81
2023/12/24 04:47:28;;;;;;;0.45;0.30;;;;;;;11.51;100.00;100489.56;5347533;27;20034;-81
2023/12/24 04:50:00;;;;;;;0.63;0.38;;;;;;;11.49;100.00;100494.16;5344895;27;20492;-81
2023/12/24 04:52:35;;;;;;;0.98;0.45;;;;;;;11.53;100.00;100500.75;5324402;27;20100;-81
2023/12/24 04:55:08;;;;;;;0.80;0.30;;;;;;;11.41;100.00;100498.31;5348630;27;20138;-81
2023/12/24 04:57:39;;;;;;;0.98;0.50;;;;;;;11.43;100.00;100498.16;5349891;27;20042;-81
2023/12/24 05:00:12;;;;;;;0.50;0.30;;;;;;;11.42;100.00;100491.25;5356657;27;20034;-81
2023/12/24 05:02:44;;;;;;;0.80;0.40;;;;;;;11.45;100.00;100481.31;5348874;27;20031;-81
2023/12/24 05:05:16;;;;;;;0.70;0.38;;;;;;;11.50;100.00;100494.00;5348518;27;20634;-81
2023/12/24 05:07:47;;;;;;;1.15;0.57;;;;;;;11.45;100.00;100483.13;5350075;27;20038;-81
2023/12/24 05:10:19;;;;;;;0.90;0.40;;;;;;;11.40;100.00;100473.06;5347944;27;20036;-81
2023/12/24 05:12:51;;;;;;;1.27;0.40;;;;;;;11.43;100.00;100485.88;5327653;27;20043;-80
2023/12/24 05:15:23;;;;;;;2.03;0.40;;;;;;;11.42;100.00;100494.72;5345617;27;20037;-81
2023/12/24 05:17:55;;;;;;;0.68;0.50;;;;;;;11.38;100.00;100488.09;5348658;27;20117;-81
2023/12/24 05:20:27;;;;;;;0.70;0.40;;;;;;;11.42;100.00;100492.09;5350478;27;20520;-81
2023/12/24 05:22:59;;;;;;;0.80;0.45;;;;;;;11.38;100.00;100495.16;5346050;27;20415;-81
2023/12/24 05:25:31;;;;;;;0.80;0.50;;;;;;;11.34;100.00;100475.44;5352580;27;20030;-81
2023/12/24 05:28:03;;;;;;;1.05;0.40;;;;;;;11.39;100.00;100484.50;5347831;27;20030;-81
2023/12/24 05:30:35;;;;;;;0.60;0.40;;;;;;;11.38;100.00;100484.66;5348901;27;20027;-81
2023/12/24 05:33:07;;;;;;;0.70;0.40;;;;;;;11.40;100.00;100483.56;5351335;27;20033;-81
2023/12/24 05:35:39;;;;;;;0.85;0.40;;;;;;;11.36;100.00;100490.03;5348982;27;20058;-81
2023/12/24 05:38:10;;;;;;;0.70;0.40;;;;;;;11.35;100.00;100479.69;5347062;27;20027;-81
2023/12/24 05:40:42;;;;;;;0.70;0.50;;;;;;;11.41;100.00;100473.88;5349364;27;20031;-81
2023/12/24 05:43:14;;;;;;;0.65;0.40;;;;;;;11.41;100.00;100466.84;5350635;27;20027;-81
2023/12/24 05:45:46;;;;;;;0.70;0.40;;;;;;;11.40;100.00;100465.19;5345527;27;20037;-81
2023/12/24 05:48:18;;;;;;;1.05;0.50;;;;;;;11.43;100.00;100459.63;5349166;27;20468;-81
2023/12/24 05:50:50;;;;;;;0.80;0.50;;;;;;;11.44;100.00;100478.84;5347785;27;20476;-81
2023/12/24 05:53:22;;;;;;;1.05;0.50;;;;;;;11.50;100.00;100475.63;5349710;27;20034;-81
2023/12/24 05:55:54;;;;;;;1.00;0.50;;;;;;;11.45;100.00;100475.25;5349849;27;20047;-81
2023/12/24 05:58:26;;;;;;;1.10;0.63;;;;;;;11.42;100.00;100471.09;5347759;27;20308;-81
2023/12/24 06:00:58;;;;;;;0.85;0.50;;;;;;;11.48;100.00;100461.84;5330388;27;20070;-80
2023/12/24 06:03:29;;;;;;;0.90;0.60;;;;;;;11.52;100.00;100467.63;5350719;27;20127;-81
2023/12/24 06:06:02;;;;;;;1.08;0.52;;;;;;;11.56;100.00;100469.00;5347629;27;20118;-81
2023/12/24 06:08:33;;;;;;;1.33;0.50;;;;;;;11.64;100.00;100476.94;5346159;27;20038;-81
2023/12/24 06:11:05;;;;;;;0.90;0.50;;;;;;;11.57;100.00;100479.31;5345589;27;20032;-81
2023/12/24 06:13:37;;;;;;;1.15;0.68;;;;;;;11.63;100.00;100468.25;5353708;27;20481;-80
2023/12/24 06:16:11;;;;;;;0.90;0.50;;;;;;;11.56;100.00;100450.63;5344899;27;20052;-81
2023/12/24 06:18:44;;;;;;;0.93;0.60;;;;;;;11.64;100.00;100471.69;5348649;27;20054;-81
2023/12/24 06:21:16;;;;;;;0.80;0.50;;;;;;;11.64;100.00;100471.69;5347729;27;20023;-81
2023/12/24 06:23:49;;;;;;;0.98;0.60;;;;;;;11.58;100.00;100459.16;5348863;27;21239;-81
2023/12/24 06:26:21;;;;;;;0.80;0.50;;;;;;;11.58;100.00;100464.41;5348422;27;20027;-81
2023/12/24 06:28:53;;;;;;;2.20;0.70;;;;;;;11.59;100.00;100445.06;5348392;27;20033;-81
2023/12/24 06:31:25;;;;;;;1.10;0.52;;;;;;;11.51;100.00;100439.72;5352392;27;20031;-81
2023/12/24 06:33:57;;;;;;;1.27;0.60;;;;;;;11.55;100.00;100438.44;5349339;27;20027;-81
2023/12/24 06:36:29;;;;;;;1.25;0.70;;;;;;;11.62;100.00;100444.78;5351785;27;20034;-81
2023/12/24 06:39:01;;;;;;;1.17;0.65;;;;;;;11.61;100.00;100441.31;5351000;27;20035;-82
2023/12/24 06:41:33;;;;;;;0.80;0.50;;;;;;;11.63;100.00;100446.41;5347863;27;20041;-81
2023/12/24 06:44:04;;;;;;;0.85;0.52;;;;;;;11.65;100.00;100444.47;5350315;27;20023;-81
2023/12/24 06:46:36;;;;;;;1.13;0.60;;;;;;;11.63;100.00;100447.25;5348109;27;20038;-81
2023/12/24 06:49:08;;;;;;;1.00;0.60;;;;;;;11.61;100.00;100441.31;5349223;27;20027;-82
2023/12/24 06:51:40;;;;;;;0.55;0.40;;;;;;;11.65;100.00;100449.72;5349158;27;20113;-81
2023/12/24 06:54:12;;;;;;;1.02;0.47;;;;;;;11.63;100.00;100444.66;5348701;27;20039;-82
2023/12/24 06:56:44;;;;;;;2.10;0.50;;;;;;;11.67;100.00;100445.19;5349885;27;20418;-81
2023/12/24 06:59:16;;;;;;;1.25;0.68;;;;;;;11.63;100.00;100426.28;5350040;27;20093;-81
2023/12/24 07:01:48;;;;;;;1.10;0.50;;;;;;;11.69;100.00;100435.34;5345680;27;20041;-81
2023/12/24 07:04:19;;;;;;;1.30;0.70;;;;;;;11.65;100.00;100428.75;5349740;27;20035;-81
2023/12/24 07:06:51;;;;;;;1.40;0.70;;;;;;;11.66;100.00;100420.72;5348810;27;20018;-81
2023/12/24 07:09:23;;;;;;;1.50;1.00;;;;;;;11.71;100.00;100428.16;5347583;27;20030;-81
2023/12/24 07:11:55;;;;;;;1.10;0.77;;;;;;;11.73;100.00;100422.75;5349711;27;20102;-81
2023/12/24 07:14:27;;;;;;;1.60;1.08;;;;;;;11.67;100.00;100425.00;5349613;27;20041;-82
2023/12/24 07:16:59;;;;;;;2.13;0.80;;;;;;;11.72;100.00;100424.56;5346118;27;20044;-82
2023/12/24 07:19:32;;;;;;;1.67;1.02;;;;;;;11.72;100.00;100427.19;5350994;27;20071;-81
2023/12/24 07:22:04;;;;;;;1.50;1.00;;;;;;;11.73;100.00;100428.81;5349701;27;20028;-81
2023/12/24 07:24:36;;;;;;;1.20;0.70;;;;;;;11.77;100.00;100435.44;5331940;27;20061;-81
2023/12/24 07:27:08;;;;;;;1.50;0.90;;;;;;;11.77;100.00;100440.69;5348884;27;20038;-81
2023/12/24 07:29:41;;;;;;;1.45;0.90;;;;;;;11.79;100.00;100433.50;5347095;27;20161;-81
2023/12/24 07:32:13;;;;;;;1.48;0.80;;;;;;;11.74;100.00;100422.59;5349203;27;20054;-81
2023/12/24 07:34:45;;;;;;;1.67;1.00;;;;;;;11.81;100.00;100438.59;5348014;27;20485;-81
2023/12/24 07:37:17;;;;;;;1.92;1.20;;;;;;;11.82;100.00;100443.69;5348871;27;20344;-81
2023/12/24 07:39:49;;;;;;;1.33;0.90;;;;;;;11.78;100.00;100434.47;5350030;27;20031;-81
2023/12/24 07:42:22;;;;;;;2.55;1.10;;;;;;;11.85;100.00;100438.16;5345248;27;20046;-81
2023/12/24 07:44:54;;;;;;;1.25;0.77;;;;;;;11.87;100.00;100435.41;5349736;27;20027;-81
2023/12/24 07:47:26;;;;;;;1.60;1.00;;;;;;;11.89;100.00;100447.41;5346249;27;20034;-81
2023/12/24 07:49:58;;;;;;;1.30;0.80;;;;;;;11.87;100.00;100451.97;5347523;27;20033;-81
2023/12/24 07:52:30;;;;;;;2.75;1.30;;;;;;;11.79;100.00;100451.88;5328023;27;20046;-81
2023/12/24 07:55:02;;;;;;;1.30;0.68;;;;;;;11.85;100.00;100448.66;5346999;27;20055;-81
2023/12/24 07:57:33;;;;;;;1.10;0.68;;;;;;;11.82;100.00;100441.06;5351561;27;20031;-81
2023/12/24 08:00:09;;;;;;;2.30;0.80;;;;;;;11.81;100.00;100436.78;5345688;27;20027;-81
2023/12/24 08:02:41;;;;;;;0.95;0.50;;;;;;;11.85;100.00;100437.34;5347200;27;20365;-81
2023/12/24 08:05:13;;;;;;;1.17;0.60;;;;;;;11.91;100.00;100442.00;5348386;27;20035;-82
2023/12/24 08:07:48;;;;;;;1.80;0.50;;;;;;;11.81;100.00;100428.09;5342888;27;20033;-81
2023/12/24 08:10:20;;;;;;;0.88;0.50;;;;;;;11.85;100.00;100429.47;5348393;27;20037;-81
2023/12/24 08:12:52;;;;;;;0.90;0.60;;;;;;;11.82;100.00;100435.81;5347467;27;20413;-81
2023/12/24 08:15:24;;;;;;;1.00;0.65;;;;;;;11.84;100.00;100443.56;5347217;27;20057;-81
2023/12/24 08:17:56;;;;;;;0.80;0.50;;;;;;;11.83;100.00;100439.28;5346517;27;20114;-82
2023/12/24 08:20:28;;;;;;;0.80;0.50;;;;;;;11.88;100.00;100458.06;5347603;27;20034;-80
2023/12/24 08:23:00;;;;;;;1.33;0.60;;;;;;;11.87;100.00;100444.09;5346225;27;20023;-81
2023/12/24 08:25:31;;;;;;;0.82;0.60;;;;;;;11.82;100.00;100435.81;5345092;27;20770;-80
2023/12/24 08:28:06;;;;;;;1.63;0.73;;;;;;;11.88;100.00;100439.69;5345217;27;20426;-80
2023/12/24 08:30:37;;;;;;;0.90;0.60;;;;;;;11.93;100.00;100425.16;5343053;27;20023;-80
2023/12/24 08:33:09;;;;;;;1.08;0.70;;;;;;;11.93;100.00;100435.66;5340693;27;20490;-80
2023/12/24 08:35:41;;;;;;;1.98;0.90;;;;;;;11.93;100.00;100440.91;5341421;27;20395;-80
2023/12/24 08:38:13;;;;;;;0.82;0.50;;;;;;;11.91;100.00;100407.88;5342662;27;20045;-80
2023/12/24 08:40:45;;;;;;;1.05;0.57;;;;;;;11.93;100.00;100443.53;5342071;27;20035;-80
2023/12/24 08:43:17;;;;;;;1.25;0.70;;;;;;;12.04;100.00;100431.94;5344305;27;20028;-80
2023/12/24 08:45:49;;;;;;;1.00;0.60;;;;;;;12.07;100.00;100422.97;5343860;27;20027;-80
2023/12/24 08:48:21;;;;;;;1.10;0.65;;;;;;;12.06;100.00;100431.81;5343739;27;20046;-81
2023/12/24 08:50:53;;;;;;;4.22;0.60;;;;;;;12.09;100.00;100429.72;5348457;27;20468;-81
2023/12/24 08:53:25;;;;;;;1.08;0.60;;;;;;;12.17;100.00;100434.22;5343293;27;20027;-81
2023/12/24 08:55:56;;;;;;;1.00;0.70;;;;;;;12.11;100.00;100422.50;5334915;27;20035;-80
2023/12/24 08:58:29;;;;;;;1.15;0.65;;;;;;;12.15;100.00;100426.47;5345567;27;20030;-81
2023/12/24 09:01:01;;;;;;;1.55;0.68;;;;;;;12.16;100.00;100428.16;5343762;27;20034;-81
2023/12/24 09:03:33;;;;;;;1.30;0.80;;;;;;;12.12;100.00;100424.19;5344480;27;20543;-81
2023/12/24 09:06:05;;;;;;;1.08;0.75;;;;;;;12.17;100.00;100428.97;5346332;27;20027;-81
2023/12/24 09:08:37;;;;;;;1.20;0.80;;;;;;;12.18;100.00;100439.31;5344876;27;20035;-81
2023/12/24 09:11:09;;;;;;;1.02;0.75;;;;;;;12.16;100.00;100454.41;5343870;27;20035;-81
2023/12/24 09:13:40;;;;;;;1.52;1.13;;;;;;;12.13;100.00;100446.00;5344087;27;20136;-81
2023/12/24 09:16:12;;;;;;;1.42;1.02;;;;;;;12.18;100.00;100457.69;5342665;27;20045;-81
2023/12/24 09:18:44;;;;;;;1.90;1.20;;;;;;;12.13;100.00;100453.88;5339942;27;20041;-81
2023/12/24 09:21:16;;;;;;;2.38;1.20;;;;;;;12.20;100.00;100456.72;5347237;27;20026;-81
2023/12/24 09:23:48;;;;;;;2.30;1.10;;;;;;;12.16;100.00;100445.72;5340956;27;20480;-81
2023/12/24 09:26:20;;;;;;;1.83;1.10;;;;;;;12.29;100.00;100442.69;5344401;27;20030;-80
2023/12/24 09:28:52;;;;;;;2.03;1.00;;;;;;;12.29;100.00;100443.53;5341399;27;20105;-81
2023/12/24 09:31:24;;;;;;;1.15;0.80;;;;;;;12.30;100.00;100446.97;5276024;27;68391;-80
2023/12/24 09:33:56;;;;;;;1.42;1.00;;;;;;;12.24;100.00;100435.28;5265452;28;20413;-81
2023/12/24 09:36:28;;;;;;;1.23;0.90;;;;;;;12.34;100.00;100433.38;5271262;28;20266;-80
2023/12/24 09:39:00;;;;;;;1.17;0.90;;;;;;;12.33;100.00;100441.41;5262590;28;20038;-81
2023/12/24 09:41:32;;;;;;;1.50;0.88;;;;;;;12.30;100.00;100429.41;5268377;28;20526;-81
2023/12/24 09:44:06;;;;;;;1.10;0.73;;;;;;;12.36;100.00;100431.44;5268776;28;20441;-81
2023/12/24 09:46:38;;;;;;;1.63;0.90;;;;;;;12.28;100.00;100423.50;5267209;28;20029;-80
2023/12/24 09:49:10;;;;;;;1.52;0.90;;;;;;;12.34;100.00;100430.75;5266737;28;20025;-81
2023/12/24 09:51:42;;;;;;;1.63;1.20;;;;;;;12.35;100.00;100437.66;5267261;28;20482;-81
2023/12/24 09:54:14;;;;;;;1.70;1.38;;;;;;;12.26;100.00;100414.09;5273912;28;20056;-81
2023/12/24 09:56:46;;;;;;;1.90;1.50;;;;;;;12.41;100.00;100436.22;5289232;28;20255;-80
2023/12/24 09:59:18;;;;;;;2.88;2.50;;;;;;;12.41;100.00;100437.03;5287606;28;20032;-81
2023/12/24 10:01:50;;;;;;;3.35;2.70;;;;;;;12.39;100.00;100427.69;5289470;28;20272;-81
2023/12/24 10:04:21;;;;;;;3.92;3.53;;;;;;;12.44;100.00;100432.47;5289159;28;20049;-81
2023/12/24 10:06:58;;;;;;;5.50;5.00;;;;;;;12.45;100.00;100440.19;5291281;28;20041;-81
2023/12/24 10:09:49;;;;;;;7.38;4.55;;;;;;;12.75;100.00;100438.13;5288145;28;20470;-80
2023/12/24 10:12:21;;;;;;;6.85;6.07;;;;;;;12.51;100.00;100438.78;5289119;28;20031;-80
2023/12/24 10:14:55;;;;;;;7.32;6.55;;;;;;;12.48;100.00;100432.00;5288228;28;20035;-80
2023/12/24 10:17:32;;;;;;;9.20;7.40;;;;;;;12.63;100.00;100425.22;5267681;28;20055;-80
2023/12/24 10:20:06;;;;;;;10.02;7.43;;;;;;;12.53;100.00;100429.75;5288302;28;20037;-80
2023/12/24 10:22:37;;;;;;;10.68;7.68;;;;;;;12.59;100.00;100429.16;5289657;28;20687;-80
2023/12/24 10:25:14;;;;;;;9.07;7.90;;;;;;;12.67;100.00;100433.63;5287898;28;20028;-80
2023/12/24 10:27:46;;;;;;;11.43;7.43;;;;;;;12.61;100.00;100448.22;5286591;28;20477;-80
2023/12/24 10:30:18;;;;;;;9.80;7.13;;;;;;;12.66;100.00;100432.81;5288992;28;20032;-80
2023/12/24 10:32:50;;;;;;;7.97;7.18;;;;;;;12.63;100.00;100427.84;5284190;28;20045;-80
2023/12/24 10:35:23;;;;;;;8.48;6.63;;;;;;;12.62;100.00;100415.69;5288039;28;20032;-80
2023/12/24 10:38:06;;;;;;;12.73;7.27;;;;;;;12.84;100.00;100421.41;5285461;28;20027;-82
2023/12/24 10:40:38;;;;;;;;;;;;;;;13.20;100.00;100402.88;5284809;28;20024;-82
2023/12/24 10:43:10;;;;;;;9.00;6.40;;;;;;;12.63;100.00;100395.50;5284850;28;19927;-82
2023/12/24 10:45:41;;;;;;;8.98;6.10;;;;;;;12.71;100.00;100397.34;5283793;28;20039;-82
2023/12/24 10:48:14;;;;;;;9.70;5.60;;;;;;;12.77;100.00;100380.97;5282690;28;20035;-82
2023/12/24 10:50:46;;;;;;;7.85;4.72;;;;;;;12.72;100.00;100373.53;5284043;28;20485;-82
2023/12/24 10:53:18;;;;;;;10.98;4.13;;;;;;;12.82;100.00;100399.72;5282518;28;20024;-82
2023/12/24 10:55:59;;;;;;;5.53;3.92;;;;;;;12.85;100.00;100381.84;5285421;28;20044;-81
2023/12/24 10:58:59;;;;;;;5.63;3.15;;;;;;;13.03;100.00;100362.50;5286201;28;20033;-81
2023/12/24 11:01:31;;;;;;;7.75;2.83;;;;;;;12.81;100.00;100379.69;5284118;28;20052;-81
2023/12/24 11:04:03;;;;;;;5.32;2.67;;;;;;;12.87;100.00;100389.56;5285923;28;20064;-81
2023/12/24 11:06:38;;;;;;;4.27;2.10;;;;;;;12.94;100.00;100402.91;5286794;28;20040;-82
2023/12/24 11:09:19;;;;;;;6.15;2.13;;;;;;;13.01;100.00;100385.53;5286095;28;20043;-81
2023/12/24 11:11:54;;;;;;;3.08;1.80;;;;;;;12.89;100.00;100374.47;5283163;28;20114;-82
2023/12/24 11:14:45;;;;;;;2.90;1.25;;;;;;;13.06;100.00;100367.47;5284348;28;20481;-81
2023/12/24 11:17:41;;;;;;;3.65;1.55;;;;;;;13.03;100.00;100367.78;5286087;28;20031;-81
2023/12/24 11:20:25;;;;;;;2.88;1.60;;;;;;;13.01;100.00;100369.75;5285184;28;20039;-81
2023/12/24 11:23:18;;;;;;;4.30;1.60;;;;;;;13.05;100.00;100376.34;5285236;28;20047;-81
2023/12/24 11:25:52;;;;;;;3.00;1.50;;;;;;;12.86;100.00;100365.06;5287870;28;20044;-81
2023/12/24 11:28:26;;;;;;;2.45;1.58;;;;;;;12.90;100.00;100366.41;5286975;28;20465;-81
2023/12/24 11:30:58;;;;;;;2.00;1.17;;;;;;;12.91;100.00;100369.84;5284740;28;20039;-81
2023/12/24 11:33:33;;;;;;;3.60;1.42;;;;;;;12.97;100.00;100368.41;5286620;28;20029;-81
2023/12/24 11:36:09;;;;;;;3.22;1.23;;;;;;;12.94;100.00;100351.16;5281832;28;20043;-81
2023/12/24 11:38:42;;;;;;;2.60;1.50;;;;;;;12.89;100.00;100348.16;5285246;28;20036;-81
2023/12/24 11:41:18;;;;;;;2.83;1.35;;;;;;;12.83;100.00;100340.91;5281798;28;20470;-81